Time;durP1;ratioP1;P1;durP2;ratioP2;P2;SDS_P1;SDS_P2;PMS_P1;PMS_P2;Temp;Humidity;BMP_temperature;BMP_pressure;BME280_temperature;BME280_humidity;BME280_pressure;Samples;Min_cycle;Max_cycle;Signal;HPM_P1;HPM_P2
2020/12/25 00:02:03;;;;;;;5.18;0.65;;;3.60;94.10;;;;;;5016676;28;20017;-89
2020/12/25 00:04:29;;;;;;;3.28;0.40;;;3.50;94.10;;;;;;5023606;28;20117;-88
2020/12/25 00:06:55;;;;;;;7.68;0.60;;;3.50;94.20;;;;;;5030281;28;20112;-89
2020/12/25 00:09:20;;;;;;;4.82;0.50;;;3.40;94.20;;;;;;5016378;28;20040;-88
2020/12/25 00:11:46;;;;;;;5.93;0.80;;;3.40;94.10;;;;;;5015948;28;20033;-89
2020/12/25 00:14:12;;;;;;;15.15;1.73;;;3.30;94.10;;;;;;5014366;28;20389;-88
2020/12/25 00:16:37;;;;;;;2.80;0.30;;;3.30;94.40;;;;;;5016878;28;20026;-89
2020/12/25 00:19:03;;;;;;;3.65;0.50;;;3.30;94.20;;;;;;5030280;28;20021;-89
2020/12/25 00:21:29;;;;;;;7.72;0.40;;;3.30;94.20;;;;;;5016819;28;20033;-89
2020/12/25 00:23:54;;;;;;;4.35;0.40;;;3.20;94.20;;;;;;5032824;28;20020;-88
2020/12/25 00:26:27;;;;;;;4.55;0.50;;;3.20;94.20;;;;;;5033291;28;20026;-89
2020/12/25 00:28:53;;;;;;;;;;;3.10;94.30;;;;;;5034359;28;20026;-89
2020/12/25 00:31:26;;;;;;;8.40;0.50;;;3.10;94.20;;;;;;5031662;28;19954;-89
2020/12/25 00:33:52;;;;;;;2.92;0.50;;;3.00;94.30;;;;;;5021743;28;20076;-89
2020/12/25 00:36:24;;;;;;;5.43;0.50;;;3.00;94.30;;;;;;5015634;28;20033;-89
2020/12/25 00:38:49;;;;;;;7.70;0.60;;;3.00;94.40;;;;;;5016336;28;20517;-88
2020/12/25 00:41:15;;;;;;;3.72;0.40;;;3.00;94.40;;;;;;5016220;28;20033;-89
2020/12/25 00:43:40;;;;;;;5.38;0.52;;;3.00;94.40;;;;;;5008851;28;20359;-89
2020/12/25 00:46:10;;;;;;;6.85;0.43;;;3.00;94.40;;;;;;5015141;28;20112;-89
2020/12/25 00:48:36;;;;;;;6.63;0.50;;;2.90;94.30;;;;;;5011473;28;20049;-90
2020/12/25 00:51:02;;;;;;;4.50;0.35;;;2.90;94.40;;;;;;5013903;28;20080;-89
2020/12/25 00:53:27;;;;;;;6.00;0.50;;;2.90;94.40;;;;;;5014277;28;20377;-89
2020/12/25 00:55:53;;;;;;;5.40;0.40;;;2.90;94.40;;;;;;4999935;28;20061;-88
2020/12/25 00:58:18;;;;;;;8.38;0.75;;;2.90;94.40;;;;;;5005708;28;20077;-88
2020/12/25 01:00:44;;;;;;;8.65;0.55;;;2.90;94.50;;;;;;5013418;28;20029;-88
2020/12/25 01:03:09;;;;;;;4.55;0.40;;;2.90;94.40;;;;;;5022833;28;20128;-89
2020/12/25 01:05:35;;;;;;;6.30;0.50;;;2.90;94.50;;;;;;5011146;28;20091;-89
2020/12/25 01:08:00;;;;;;;5.53;0.50;;;2.90;94.50;;;;;;5015730;28;20048;-89
2020/12/25 01:10:26;;;;;;;3.50;0.40;;;2.80;94.50;;;;;;5016148;28;20417;-89
2020/12/25 01:12:51;;;;;;;5.03;0.40;;;2.90;94.60;;;;;;5001028;28;20390;-88
2020/12/25 01:15:17;;;;;;;6.75;0.50;;;2.80;94.60;;;;;;5011612;28;20034;-88
2020/12/25 01:17:42;;;;;;;8.45;0.60;;;2.90;94.60;;;;;;5015487;28;20033;-88
2020/12/25 01:20:08;;;;;;;5.78;0.40;;;2.90;94.60;;;;;;5010541;28;20046;-88
2020/12/25 01:22:33;;;;;;;6.80;0.40;;;2.90;94.50;;;;;;5015176;28;20079;-88
2020/12/25 01:24:59;;;;;;;10.65;0.65;;;2.90;94.50;;;;;;5012401;28;20394;-88
2020/12/25 01:27:25;;;;;;;6.47;0.50;;;2.90;94.50;;;;;;5003507;28;20028;-89
2020/12/25 01:29:50;;;;;;;5.80;0.60;;;2.90;94.50;;;;;;5001603;28;20481;-89
2020/12/25 01:32:15;;;;;;;5.72;1.27;;;2.90;94.60;;;;;;5014953;28;20031;-88
2020/12/25 01:34:41;;;;;;;10.73;0.60;;;2.90;94.50;;;;;;5008683;28;20033;-89
2020/12/25 01:37:07;;;;;;;6.32;0.60;;;2.80;94.50;;;;;;5011544;28;20469;-89
2020/12/25 01:39:32;;;;;;;5.22;0.70;;;2.80;94.50;;;;;;5015784;28;20030;-88
2020/12/25 01:41:57;;;;;;;9.20;0.40;;;2.80;94.50;;;;;;5015711;28;20029;-88
2020/12/25 01:44:23;;;;;;;5.60;0.50;;;2.80;94.60;;;;;;5018067;28;20029;-88
2020/12/25 01:46:49;;;;;;;7.65;1.00;;;2.80;94.60;;;;;;5019147;28;20156;-89
2020/12/25 01:49:14;;;;;;;6.53;0.65;;;2.70;94.60;;;;;;5019045;28;20084;-89
2020/12/25 01:51:40;;;;;;;9.95;1.65;;;2.70;94.60;;;;;;5015506;28;20022;-89
2020/12/25 01:54:06;;;;;;;6.88;0.50;;;2.70;94.60;;;;;;5017311;28;20536;-88
2020/12/25 01:56:32;;;;;;;6.05;0.40;;;2.60;94.70;;;;;;5019191;28;20021;-88
2020/12/25 01:58:57;;;;;;;9.05;0.40;;;2.70;94.80;;;;;;5018313;28;20509;-88
2020/12/25 02:01:23;;;;;;;6.45;0.70;;;2.60;94.80;;;;;;5015425;28;20501;-89
2020/12/25 02:03:49;;;;;;;6.22;0.50;;;2.60;94.80;;;;;;5014666;28;20032;-90
2020/12/25 02:06:15;;;;;;;11.20;0.45;;;2.70;94.80;;;;;;5018996;28;20044;-89
2020/12/25 02:08:40;;;;;;;13.68;0.80;;;2.70;94.90;;;;;;5018633;28;20103;-88
2020/12/25 02:11:07;;;;;;;8.02;0.40;;;2.70;94.90;;;;;;5018464;28;20116;-88
2020/12/25 02:13:32;;;;;;;13.23;0.55;;;2.70;94.90;;;;;;5018150;28;20026;-89
2020/12/25 02:15:58;;;;;;;9.98;0.70;;;2.70;94.90;;;;;;5018401;28;20035;-89
2020/12/25 02:18:32;;;;;;;13.57;0.68;;;2.80;94.90;;;;;;5018670;28;20381;-88
2020/12/25 02:21:02;;;;;;;8.52;0.52;;;2.80;94.90;;;;;;5018540;28;20022;-89
2020/12/25 02:23:27;;;;;;;5.32;0.50;;;2.90;94.90;;;;;;5037133;28;20025;-89
2020/12/25 02:25:53;;;;;;;5.80;0.35;;;2.80;94.90;;;;;;5024781;28;20031;-89
2020/12/25 02:28:18;;;;;;;5.85;0.30;;;2.80;94.80;;;;;;5037985;28;20044;-89
2020/12/25 02:30:44;;;;;;;9.60;0.55;;;2.90;94.90;;;;;;5034847;28;20116;-89
2020/12/25 02:33:09;;;;;;;10.23;0.30;;;2.90;95.00;;;;;;5028606;28;20104;-89
2020/12/25 02:35:35;;;;;;;5.90;0.30;;;3.00;95.00;;;;;;5023778;28;20022;-88
2020/12/25 02:38:00;;;;;;;13.35;0.52;;;3.00;95.00;;;;;;5017856;28;20025;-88
2020/12/25 02:40:26;;;;;;;5.82;0.60;;;3.10;95.00;;;;;;5018755;28;20108;-89
2020/12/25 02:42:51;;;;;;;4.38;0.30;;;3.10;95.00;;;;;;5034556;28;20022;-89
2020/12/25 02:45:17;;;;;;;9.05;0.50;;;3.20;94.90;;;;;;5017784;28;20386;-89
2020/12/25 02:47:42;;;;;;;6.13;0.28;;;3.30;94.90;;;;;;5011844;28;20025;-89
2020/12/25 02:50:08;;;;;;;10.65;0.40;;;3.40;95.20;;;;;;5025260;28;20544;-89
2020/12/25 02:52:33;;;;;;;5.32;0.30;;;3.50;94.80;;;;;;5033339;28;20025;-90
2020/12/25 02:54:59;;;;;;;4.57;0.35;;;3.50;94.70;;;;;;5031871;28;20041;-90
2020/12/25 02:57:24;;;;;;;5.70;0.52;;;3.50;94.70;;;;;;5034015;28;20041;-89
2020/12/25 02:59:50;;;;;;;9.23;0.30;;;3.60;94.60;;;;;;5004143;28;20486;-88
2020/12/25 03:02:16;;;;;;;5.50;0.30;;;3.60;94.60;;;;;;5031409;28;20033;-89
2020/12/25 03:04:42;;;;;;;5.50;0.65;;;3.70;94.50;;;;;;5016055;28;20494;-89
2020/12/25 03:07:07;;;;;;;4.82;0.20;;;3.60;94.40;;;;;;5021817;28;20021;-90
2020/12/25 03:09:33;;;;;;;1.95;0.25;;;3.60;94.40;;;;;;5013099;28;20034;-89
2020/12/25 03:11:58;;;;;;;4.65;0.30;;;3.60;94.40;;;;;;5022644;28;20066;-89
2020/12/25 03:14:24;;;;;;;5.65;0.30;;;3.60;94.30;;;;;;5010694;28;20025;-90
2020/12/25 03:16:49;;;;;;;4.60;0.30;;;3.60;94.40;;;;;;5019686;28;20071;-90
2020/12/25 03:19:15;;;;;;;10.05;0.30;;;3.50;94.30;;;;;;5033959;28;20037;-89
2020/12/25 03:21:41;;;;;;;6.32;0.90;;;3.50;94.60;;;;;;5029468;28;20029;-89
2020/12/25 03:24:06;;;;;;;5.10;0.17;;;3.50;94.30;;;;;;5035470;28;20033;-89
2020/12/25 03:26:32;;;;;;;6.53;0.40;;;3.40;94.30;;;;;;5021116;28;20025;-88
2020/12/25 03:28:57;;;;;;;1.55;0.10;;;3.40;94.30;;;;;;5015818;28;20170;-88
2020/12/25 03:31:23;;;;;;;4.53;0.30;;;3.40;94.20;;;;;;5030631;28;20032;-89
2020/12/25 03:33:48;;;;;;;3.17;0.20;;;3.30;94.30;;;;;;5016873;28;20433;-89
2020/12/25 03:36:14;;;;;;;2.60;0.20;;;3.30;94.50;;;;;;5016937;28;20128;-90
2020/12/25 03:38:39;;;;;;;2.80;0.10;;;3.30;94.20;;;;;;5017757;28;20025;-89
2020/12/25 03:41:05;;;;;;;5.72;0.45;;;3.30;94.30;;;;;;5017275;28;20033;-90
2020/12/25 03:43:31;;;;;;;3.95;0.10;;;3.30;94.30;;;;;;5015334;28;20064;-89
2020/12/25 03:45:56;;;;;;;3.63;0.13;;;3.30;94.20;;;;;;5011121;28;20022;-90
2020/12/25 03:48:22;;;;;;;5.05;0.17;;;3.30;94.30;;;;;;5014380;28;20536;-91
2020/12/25 03:50:48;;;;;;;3.47;0.20;;;3.20;94.20;;;;;;5025517;28;20034;-90
2020/12/25 03:53:13;;;;;;;1.48;0.15;;;3.20;94.10;;;;;;5034616;28;20393;-89
2020/12/25 03:55:39;;;;;;;3.13;0.20;;;3.20;94.10;;;;;;5012139;28;20037;-89
2020/12/25 03:58:04;;;;;;;2.55;0.20;;;3.20;94.10;;;;;;5026836;28;20512;-89
2020/12/25 04:00:30;;;;;;;3.40;0.10;;;3.10;94.10;;;;;;5015285;28;20106;-89
2020/12/25 04:02:55;;;;;;;3.83;0.30;;;3.10;94.10;;;;;;5016573;28;20028;-89
2020/12/25 04:05:21;;;;;;;4.68;0.30;;;3.10;94.10;;;;;;5016101;28;20021;-89
2020/12/25 04:07:46;;;;;;;5.05;0.20;;;3.10;94.20;;;;;;5013081;28;20030;-89
2020/12/25 04:10:12;;;;;;;3.33;0.40;;;3.00;94.10;;;;;;5016412;28;20135;-89
2020/12/25 04:12:37;;;;;;;6.60;0.20;;;3.00;94.10;;;;;;5016029;28;20381;-90
2020/12/25 04:15:03;;;;;;;4.65;0.20;;;3.00;94.20;;;;;;5013059;28;20037;-90
2020/12/25 04:17:28;;;;;;;4.70;0.30;;;3.00;94.10;;;;;;5016176;28;20037;-89
2020/12/25 04:19:54;;;;;;;3.97;0.20;;;3.00;94.10;;;;;;5026187;28;20029;-90
2020/12/25 04:22:19;;;;;;;3.17;0.30;;;2.90;94.10;;;;;;5023756;28;20064;-89
2020/12/25 04:24:45;;;;;;;3.72;0.15;;;2.90;94.20;;;;;;5013056;28;20116;-90
2020/12/25 04:27:11;;;;;;;2.78;0.28;;;2.80;94.20;;;;;;5016532;28;20034;-90
2020/12/25 04:29:36;;;;;;;3.00;0.10;;;2.80;94.30;;;;;;5012468;28;20446;-89
2020/12/25 04:32:02;;;;;;;3.63;0.10;;;2.70;94.30;;;;;;5000868;28;20490;-89
2020/12/25 04:34:28;;;;;;;6.13;0.20;;;2.70;94.40;;;;;;5010538;28;20030;-89
2020/12/25 04:36:53;;;;;;;2.20;0.10;;;2.70;94.40;;;;;;5011592;28;20065;-89
2020/12/25 04:39:19;;;;;;;1.48;0.10;;;2.70;94.50;;;;;;5013688;28;20514;-89
2020/12/25 04:41:44;;;;;;;4.90;0.40;;;2.70;94.50;;;;;;5015774;28;20037;-90
2020/12/25 04:44:10;;;;;;;2.95;0.20;;;2.70;94.50;;;;;;5017369;28;20108;-89
2020/12/25 04:46:35;;;;;;;2.42;0.17;;;2.70;94.50;;;;;;5028192;28;20071;-89
2020/12/25 04:49:01;;;;;;;3.88;0.32;;;2.70;94.50;;;;;;5016125;28;20151;-90
2020/12/25 04:51:27;;;;;;;2.58;0.32;;;2.70;94.50;;;;;;5014731;28;20028;-89
2020/12/25 04:53:54;;;;;;;1.95;0.10;;;2.70;94.50;;;;;;5015637;28;20029;-90
2020/12/25 04:56:21;;;;;;;2.50;0.10;;;2.80;94.50;;;;;;5015422;28;20025;-89
2020/12/25 04:58:47;;;;;;;2.95;0.30;;;2.80;94.50;;;;;;5024871;28;20049;-89
2020/12/25 05:01:13;;;;;;;1.95;0.20;;;2.80;94.40;;;;;;5031175;28;20087;-89
2020/12/25 05:03:41;;;;;;;2.13;0.10;;;2.90;94.40;;;;;;5014868;28;20048;-89
2020/12/25 05:06:11;;;;;;;2.88;0.20;;;2.90;94.30;;;;;;5014933;28;20087;-90
2020/12/25 05:08:44;;;;;;;2.20;0.20;;;2.80;94.30;;;;;;5012435;28;20508;-88
2020/12/25 05:11:11;;;;;;;2.40;0.22;;;2.80;94.30;;;;;;5011727;28;20041;-90
2020/12/25 05:13:53;;;;;;;1.55;0.30;;;2.80;94.30;;;;;;5014126;28;20029;-89
2020/12/25 05:16:22;;;;;;;2.20;0.13;;;2.70;94.20;;;;;;5014566;28;21648;-90
2020/12/25 05:18:49;;;;;;;2.72;0.10;;;2.70;94.20;;;;;;5020685;28;20036;-90
2020/12/25 05:21:18;;;;;;;1.08;0.10;;;2.60;94.30;;;;;;5015594;28;20089;-89
2020/12/25 05:23:46;;;;;;;5.18;0.20;;;2.60;94.30;;;;;;5032943;28;20392;-89
2020/12/25 05:26:13;;;;;;;2.47;0.10;;;2.60;94.30;;;;;;5044749;28;20028;-89
2020/12/25 05:28:41;;;;;;;3.42;0.10;;;2.50;94.30;;;;;;5037884;28;20378;-90
2020/12/25 05:31:07;;;;;;;1.58;0.10;;;2.40;94.40;;;;;;5020643;28;20037;-90
2020/12/25 05:33:34;;;;;;;2.42;0.30;;;2.40;94.40;;;;;;5037488;28;20032;-89
2020/12/25 05:36:09;;;;;;;3.35;0.17;;;2.40;94.50;;;;;;5039714;28;20113;-89
2020/12/25 05:38:37;;;;;;;1.50;0.10;;;2.30;94.50;;;;;;5019076;28;20026;-89
2020/12/25 05:41:04;;;;;;;2.63;0.10;;;2.20;94.50;;;;;;5037285;28;20033;-89
2020/12/25 05:43:30;;;;;;;2.20;0.60;;;2.20;94.60;;;;;;5035480;28;20033;-89
2020/12/25 05:45:55;;;;;;;3.17;0.40;;;2.10;94.60;;;;;;5023151;28;20028;-89
2020/12/25 05:48:21;;;;;;;3.00;0.40;;;2.10;94.60;;;;;;5022146;28;20095;-91
2020/12/25 05:50:47;;;;;;;2.38;0.20;;;2.10;94.60;;;;;;5023586;28;20038;-91
2020/12/25 05:53:12;;;;;;;0.68;0.10;;;2.10;94.70;;;;;;5016418;28;20155;-89
2020/12/25 05:55:38;;;;;;;3.40;0.30;;;2.00;94.70;;;;;;5020547;28;20038;-90
2020/12/25 05:58:05;;;;;;;1.30;0.20;;;2.00;94.70;;;;;;5022263;28;20046;-90
2020/12/25 06:00:33;;;;;;;1.65;0.20;;;2.00;94.80;;;;;;5019160;28;20104;-89
2020/12/25 06:02:59;;;;;;;2.15;0.30;;;2.00;94.80;;;;;;5018824;28;20033;-89
2020/12/25 06:05:26;;;;;;;5.68;0.95;;;2.00;94.80;;;;;;5017236;28;20113;-89
2020/12/25 06:07:57;;;;;;;6.68;0.60;;;2.10;94.80;;;;;;5027826;28;20022;-89
2020/12/25 06:10:27;;;;;;;7.03;0.52;;;2.00;94.80;;;;;;5021212;28;20120;-89
2020/12/25 06:12:55;;;;;;;1.38;0.30;;;2.00;94.80;;;;;;5033827;28;20121;-89
2020/12/25 06:15:30;;;;;;;3.45;0.35;;;2.00;94.80;;;;;;5019344;28;20052;-90
2020/12/25 06:18:20;;;;;;;3.95;0.60;;;2.10;94.90;;;;;;5019516;28;20117;-89
2020/12/25 06:20:59;;;;;;;4.10;0.30;;;2.10;94.80;;;;;;5036116;28;20037;-90
2020/12/25 06:23:27;;;;;;;8.93;0.50;;;2.10;94.80;;;;;;5024997;28;20028;-90
2020/12/25 06:25:52;;;;;;;5.20;0.30;;;2.10;94.90;;;;;;5017154;28;20409;-90
2020/12/25 06:28:19;;;;;;;4.22;0.30;;;2.10;94.90;;;;;;5020516;28;20033;-91
2020/12/25 06:30:45;;;;;;;5.80;0.22;;;2.10;95.00;;;;;;5017694;28;20045;-90
2020/12/25 06:33:11;;;;;;;9.90;0.85;;;2.20;95.10;;;;;;5014051;28;20025;-91
2020/12/25 06:35:43;;;;;;;8.43;0.60;;;2.30;95.10;;;;;;5015097;28;20021;-90
2020/12/25 06:38:14;;;;;;;6.70;0.30;;;2.40;95.10;;;;;;5005861;28;20057;-91
2020/12/25 06:40:40;;;;;;;12.15;0.40;;;2.50;95.10;;;;;;5012914;28;20072;-91
2020/12/25 06:43:32;;;;;;;11.00;0.50;;;2.60;95.00;;;;;;5017433;28;20045;-89
2020/12/25 06:46:02;;;;;;;9.20;0.45;;;2.70;94.90;;;;;;5026306;28;20402;-90
2020/12/25 06:48:29;;;;;;;8.60;1.02;;;2.70;94.90;;;;;;5011618;28;20018;-91
2020/12/25 06:50:57;;;;;;;9.00;0.57;;;2.80;94.90;;;;;;5011429;28;20037;-91
2020/12/25 06:53:42;;;;;;;10.50;0.63;;;2.80;94.80;;;;;;5018246;28;20056;-91
2020/12/25 06:56:19;;;;;;;5.10;0.32;;;2.90;94.80;;;;;;5017790;28;20116;-91
2020/12/25 06:58:46;;;;;;;5.82;0.35;;;2.90;94.70;;;;;;5017989;28;20063;-91
2020/12/25 07:01:14;;;;;;;8.23;0.82;;;2.80;94.60;;;;;;5034404;28;20025;-91
2020/12/25 07:03:40;;;;;;;4.10;0.55;;;2.90;94.60;;;;;;5018318;28;20087;-91
2020/12/25 07:06:09;;;;;;;8.05;0.35;;;2.80;94.60;;;;;;5018069;28;20018;-91
2020/12/25 07:08:44;;;;;;;6.85;0.30;;;2.80;94.70;;;;;;5011224;28;20045;-91
2020/12/25 07:11:11;;;;;;;7.30;0.50;;;2.80;94.70;;;;;;5016895;28;20049;-91
2020/12/25 07:13:38;;;;;;;7.65;1.20;;;2.90;94.80;;;;;;5015560;28;20029;-91
2020/12/25 07:16:07;;;;;;;12.77;0.50;;;2.90;94.80;;;;;;5016742;28;20064;-91
2020/12/25 07:18:33;;;;;;;9.77;0.45;;;2.90;94.70;;;;;;5016485;28;20497;-91
2020/12/25 07:20:59;;;;;;;4.65;0.63;;;2.90;94.70;;;;;;5025040;28;20068;-90
2020/12/25 07:23:25;;;;;;;7.97;0.45;;;3.00;94.70;;;;;;5026780;28;20017;-91
2020/12/25 07:25:57;;;;;;;3.75;0.30;;;3.00;94.70;;;;;;5026594;28;20037;-90
2020/12/25 07:28:27;;;;;;;6.88;0.40;;;3.00;94.70;;;;;;5013055;28;20018;-89
2020/12/25 07:30:57;;;;;;;5.80;0.63;;;3.00;94.60;;;;;;5009631;28;20037;-90
2020/12/25 07:33:23;;;;;;;6.30;1.15;;;3.00;94.60;;;;;;5011558;28;20389;-90
2020/12/25 07:35:50;;;;;;;13.82;0.40;;;3.00;94.50;;;;;;5027263;28;20034;-91
2020/12/25 07:38:16;;;;;;;6.97;0.80;;;2.90;94.40;;;;;;5008205;28;20040;-91
2020/12/25 07:40:43;;;;;;;6.30;0.32;;;2.80;94.40;;;;;;5008687;28;20112;-91
2020/12/25 07:43:10;;;;;;;7.03;0.52;;;2.70;94.50;;;;;;5008393;28;20026;-90
2020/12/25 07:45:36;;;;;;;2.50;0.30;;;2.60;94.50;;;;;;5005890;28;20018;-91
2020/12/25 07:48:04;;;;;;;9.38;0.55;;;2.50;94.60;;;;;;5029288;28;20022;-91
2020/12/25 07:50:33;;;;;;;9.02;0.82;;;2.50;94.70;;;;;;5023308;28;20049;-90
2020/12/25 07:52:59;;;;;;;2.97;0.38;;;2.40;94.70;;;;;;5022383;28;20026;-91
2020/12/25 07:55:27;;;;;;;8.82;0.43;;;2.40;94.80;;;;;;5009187;28;20552;-90
2020/12/25 07:57:52;;;;;;;4.93;0.45;;;2.40;94.80;;;;;;5007317;28;20405;-90
2020/12/25 08:00:18;;;;;;;10.55;1.00;;;2.30;94.80;;;;;;5027781;28;20025;-89
2020/12/25 08:02:43;;;;;;;7.43;0.40;;;2.30;94.90;;;;;;5011197;28;20061;-90
2020/12/25 08:05:10;;;;;;;6.13;0.73;;;2.30;94.90;;;;;;5010898;28;20433;-90
2020/12/25 08:07:41;;;;;;;9.50;0.57;;;2.20;94.90;;;;;;5011345;28;20044;-90
2020/12/25 08:10:11;;;;;;;7.57;0.52;;;2.20;94.90;;;;;;5011872;28;20044;-90
2020/12/25 08:12:40;;;;;;;7.53;0.50;;;2.20;94.90;;;;;;5013268;28;20121;-90
2020/12/25 08:15:05;;;;;;;7.13;0.40;;;2.20;95.00;;;;;;5029655;28;20097;-90
2020/12/25 08:17:31;;;;;;;7.20;0.60;;;2.10;94.90;;;;;;5015989;28;20060;-91
2020/12/25 08:19:57;;;;;;;5.38;0.40;;;2.10;95.00;;;;;;5012029;28;20044;-90
2020/12/25 08:22:22;;;;;;;5.90;0.70;;;2.00;95.00;;;;;;5026229;28;20014;-90
2020/12/25 08:24:48;;;;;;;3.42;0.50;;;2.00;95.00;;;;;;5009171;28;20136;-91
2020/12/25 08:27:18;;;;;;;3.92;0.60;;;2.00;95.10;;;;;;5006140;28;20026;-90
2020/12/25 08:29:43;;;;;;;13.18;0.90;;;2.00;95.00;;;;;;5013324;28;20124;-90
2020/12/25 08:32:10;;;;;;;14.65;1.05;;;2.00;95.10;;;;;;5009971;28;20105;-91
2020/12/25 08:34:36;;;;;;;5.55;0.85;;;2.00;95.10;;;;;;5014636;28;20087;-90
2020/12/25 08:37:04;;;;;;;10.07;0.93;;;2.00;95.10;;;;;;5015007;28;20116;-90
2020/12/25 08:39:34;;;;;;;7.22;0.60;;;2.00;95.10;;;;;;5016944;28;20039;-90
2020/12/25 08:41:59;;;;;;;5.82;1.70;;;2.00;95.10;;;;;;5027785;28;20304;-90
2020/12/25 08:44:25;;;;;;;7.70;0.95;;;2.00;95.10;;;;;;5006963;28;20053;-92
2020/12/25 08:47:11;;;;;;;7.68;0.70;;;1.90;95.10;;;;;;5009320;28;20386;-92
2020/12/25 08:49:37;;;;;;;8.63;0.70;;;1.90;95.10;;;;;;5000624;28;20045;-92
2020/12/25 08:52:03;;;;;;;6.68;1.02;;;2.00;95.20;;;;;;5027901;28;20032;-92
2020/12/25 08:54:30;;;;;;;4.90;0.70;;;2.00;95.20;;;;;;5010169;28;20025;-91
2020/12/25 08:56:56;;;;;;;9.00;0.75;;;2.00;95.10;;;;;;5009793;28;20021;-91
2020/12/25 08:59:22;;;;;;;6.57;0.85;;;2.00;95.10;;;;;;5002400;28;20029;-91
2020/12/25 09:01:51;;;;;;;7.60;1.00;;;2.10;95.30;;;;;;5024234;28;20025;-92
2020/12/25 09:04:22;;;;;;;5.57;0.60;;;2.10;95.20;;;;;;5003686;28;20034;-92
2020/12/25 09:06:51;;;;;;;8.40;0.70;;;2.20;95.20;;;;;;5005297;28;20429;-94
2020/12/25 09:09:17;;;;;;;8.88;1.10;;;2.20;95.20;;;;;;5003144;28;20078;-91
2020/12/25 09:11:43;;;;;;;8.60;0.70;;;2.30;95.30;;;;;;5020102;28;20033;-92
2020/12/25 09:14:09;;;;;;;6.10;0.82;;;2.40;95.30;;;;;;5006542;28;20071;-92
2020/12/25 09:16:35;;;;;;;9.82;0.80;;;2.50;95.20;;;;;;5006959;28;20116;-91
2020/12/25 09:19:00;;;;;;;3.00;0.63;;;2.60;95.20;;;;;;5007974;28;20401;-91
2020/12/25 09:21:27;;;;;;;7.22;0.98;;;2.70;95.10;;;;;;5004183;28;20034;-91
2020/12/25 09:23:56;;;;;;;10.48;1.05;;;2.80;95.10;;;;;;5008307;28;20033;-91
2020/12/25 09:26:22;;;;;;;8.15;1.02;;;3.00;95.10;;;;;;5008345;28;20116;-91
2020/12/25 09:28:48;;;;;;;7.60;0.65;;;3.10;95.10;;;;;;5023824;28;20025;-90
2020/12/25 09:31:14;;;;;;;10.38;1.13;;;3.20;94.90;;;;;;5002409;28;20037;-87
2020/12/25 09:33:41;;;;;;;9.70;0.73;;;3.30;94.60;;;;;;5009931;28;20160;-91
2020/12/25 09:36:09;;;;;;;6.80;0.60;;;3.40;94.60;;;;;;5012569;28;20022;-90
2020/12/25 09:38:37;;;;;;;7.35;0.73;;;3.30;94.50;;;;;;5010362;28;20017;-90
2020/12/25 09:41:03;;;;;;;6.28;0.50;;;3.40;94.60;;;;;;5019945;28;20113;-91
2020/12/25 09:43:29;;;;;;;7.90;0.73;;;3.50;94.60;;;;;;5008773;28;20116;-90
2020/12/25 09:45:55;;;;;;;6.53;0.60;;;3.60;94.60;;;;;;5005972;28;20018;-91
2020/12/25 09:48:21;;;;;;;10.88;1.65;;;3.60;94.50;;;;;;5021337;28;20025;-91
2020/12/25 09:50:47;;;;;;;9.40;0.45;;;3.70;94.50;;;;;;5008767;28;20417;-91
2020/12/25 09:53:12;;;;;;;7.20;0.73;;;3.80;94.40;;;;;;5004877;28;20121;-91
2020/12/25 09:55:40;;;;;;;8.23;0.40;;;3.80;94.40;;;;;;5009281;28;20045;-91
2020/12/25 09:58:07;;;;;;;6.05;0.70;;;3.90;94.40;;;;;;5006476;28;20124;-90
2020/12/25 10:00:32;;;;;;;3.92;0.30;;;4.00;94.30;;;;;;4998849;28;20072;-89
2020/12/25 10:02:58;;;;;;;6.25;0.55;;;4.10;94.30;;;;;;5008377;28;20026;-89
2020/12/25 10:05:24;;;;;;;6.10;0.25;;;4.10;94.20;;;;;;5003857;28;20037;-90
2020/12/25 10:07:52;;;;;;;9.75;0.68;;;4.20;94.10;;;;;;5010152;28;20037;-89
2020/12/25 10:10:22;;;;;;;7.10;0.35;;;4.20;94.10;;;;;;5007435;28;20038;-90
2020/12/25 10:12:50;;;;;;;2.70;0.30;;;4.30;94.00;;;;;;5021811;28;20034;-90
2020/12/25 10:15:15;;;;;;;8.00;1.08;;;4.30;93.90;;;;;;5022074;28;20030;-90
2020/12/25 10:17:41;;;;;;;5.68;1.02;;;4.40;93.90;;;;;;5007265;28;20075;-90
2020/12/25 10:20:07;;;;;;;10.07;0.60;;;4.40;93.70;;;;;;5022964;28;20108;-90
2020/12/25 10:22:32;;;;;;;6.90;0.40;;;4.40;93.60;;;;;;5007137;28;20026;-90
2020/12/25 10:24:58;;;;;;;4.55;0.50;;;4.40;93.60;;;;;;5025511;28;20033;-91
2020/12/25 10:27:24;;;;;;;6.50;0.50;;;4.40;93.70;;;;;;5021454;28;20141;-88
2020/12/25 10:29:50;;;;;;;8.95;0.47;;;4.40;93.70;;;;;;5023297;28;20038;-90
2020/12/25 10:32:16;;;;;;;4.88;0.40;;;4.50;93.60;;;;;;5021614;28;20025;-89
2020/12/25 10:34:41;;;;;;;8.82;0.40;;;4.60;93.60;;;;;;5029232;28;20033;-90
2020/12/25 10:37:07;;;;;;;4.35;0.47;;;4.60;93.60;;;;;;5029184;28;20072;-89
2020/12/25 10:39:32;;;;;;;5.28;0.30;;;4.70;93.50;;;;;;5030487;28;20030;-89
2020/12/25 10:41:58;;;;;;;5.85;0.47;;;4.70;93.40;;;;;;5012583;28;20121;-89
2020/12/25 10:44:23;;;;;;;5.70;0.60;;;4.80;93.30;;;;;;5028523;28;20033;-89
2020/12/25 10:46:49;;;;;;;6.60;0.80;;;4.80;93.20;;;;;;5025500;28;20021;-88
2020/12/25 10:49:14;;;;;;;7.05;1.10;;;4.80;93.10;;;;;;5015235;28;20083;-89
2020/12/25 10:51:46;;;;;;;7.40;0.40;;;4.80;93.30;;;;;;5016440;28;20032;-88
2020/12/25 10:54:12;;;;;;;8.55;0.50;;;4.80;93.20;;;;;;5032666;28;20103;-88
2020/12/25 10:56:38;;;;;;;6.95;0.60;;;4.90;93.20;;;;;;5024879;28;20032;-88
2020/12/25 10:59:04;;;;;;;4.57;0.57;;;4.90;93.10;;;;;;5024531;28;20498;-87
2020/12/25 11:01:33;;;;;;;4.55;0.40;;;5.00;93.00;;;;;;5018095;28;20485;-89
2020/12/25 11:03:58;;;;;;;4.85;0.38;;;5.00;92.90;;;;;;5033532;28;20033;-88
2020/12/25 11:06:37;;;;;;;5.25;0.50;;;5.00;92.70;;;;;;5014040;28;20033;-89
2020/12/25 11:09:06;;;;;;;8.60;0.52;;;4.90;92.80;;;;;;5012770;28;20033;-89
2020/12/25 11:11:33;;;;;;;4.45;0.30;;;4.90;92.90;;;;;;5030595;28;20040;-90
2020/12/25 11:14:00;;;;;;;8.05;0.50;;;5.00;92.90;;;;;;5024961;28;20406;-89
2020/12/25 11:16:30;;;;;;;6.57;0.35;;;5.10;92.90;;;;;;5012610;28;20468;-89
2020/12/25 11:18:58;;;;;;;6.82;0.30;;;5.10;92.80;;;;;;5017842;28;20452;-90
2020/12/25 11:21:25;;;;;;;3.92;0.70;;;5.10;92.70;;;;;;5034570;28;20029;-89
2020/12/25 11:23:52;;;;;;;4.85;0.40;;;5.20;92.70;;;;;;5030932;28;20104;-89
2020/12/25 11:26:26;;;;;;;5.82;0.40;;;5.30;92.60;;;;;;5016146;28;20033;-88
2020/12/25 11:28:54;;;;;;;3.20;0.40;;;5.30;92.30;;;;;;5014706;28;20036;-89
2020/12/25 11:31:20;;;;;;;5.70;1.00;;;5.30;92.10;;;;;;5016300;28;20102;-89
2020/12/25 11:33:46;;;;;;;5.40;0.70;;;5.30;92.00;;;;;;5018050;28;20034;-88
2020/12/25 11:36:16;;;;;;;6.55;0.40;;;5.40;92.10;;;;;;5015929;28;20388;-88
2020/12/25 11:38:43;;;;;;;5.90;0.70;;;5.40;92.00;;;;;;5025095;28;20079;-89
2020/12/25 11:41:11;;;;;;;3.35;0.73;;;5.40;91.90;;;;;;5015140;28;20025;-88
2020/12/25 11:43:37;;;;;;;3.47;0.15;;;5.50;91.90;;;;;;5009394;28;20064;-88
2020/12/25 11:46:03;;;;;;;6.28;0.32;;;5.50;91.80;;;;;;5017635;28;20022;-89
2020/12/25 11:48:29;;;;;;;7.07;0.30;;;5.60;91.70;;;;;;5011166;28;20033;-89
2020/12/25 11:50:56;;;;;;;5.75;0.30;;;5.60;91.30;;;;;;5010222;28;20046;-87
2020/12/25 11:53:22;;;;;;;1.90;0.20;;;5.60;91.10;;;;;;5016346;28;20113;-90
2020/12/25 11:55:48;;;;;;;6.05;0.30;;;5.60;91.10;;;;;;5012073;28;20125;-89
2020/12/25 11:58:14;;;;;;;3.63;0.20;;;5.60;90.90;;;;;;5007734;28;20041;-89
2020/12/25 12:00:39;;;;;;;7.28;0.30;;;5.70;90.80;;;;;;5000576;28;20106;-89
2020/12/25 12:03:05;;;;;;;4.70;0.20;;;5.70;90.70;;;;;;5022065;28;20100;-88
2020/12/25 12:05:30;;;;;;;5.20;0.20;;;5.80;90.70;;;;;;5007623;28;20037;-89
2020/12/25 12:07:56;;;;;;;3.42;0.20;;;5.80;90.50;;;;;;5020781;28;20034;-89
2020/12/25 12:10:21;;;;;;;4.22;0.20;;;5.70;90.30;;;;;;5006355;28;20073;-89
2020/12/25 12:12:47;;;;;;;4.25;0.20;;;5.70;90.30;;;;;;5021906;28;20076;-88
2020/12/25 12:15:12;;;;;;;5.78;0.20;;;5.60;90.30;;;;;;5012075;28;20068;-89
2020/12/25 12:17:38;;;;;;;2.40;0.22;;;5.60;90.40;;;;;;5014144;28;20025;-89
2020/12/25 12:20:04;;;;;;;2.50;0.30;;;5.60;90.50;;;;;;5033778;28;20473;-88
2020/12/25 12:22:29;;;;;;;4.22;0.20;;;5.60;90.30;;;;;;5015061;28;20547;-89
2020/12/25 12:24:55;;;;;;;4.60;0.20;;;5.70;90.20;;;;;;5015937;28;20053;-88
2020/12/25 12:27:21;;;;;;;3.92;0.30;;;5.70;90.50;;;;;;5012449;28;20032;-90
2020/12/25 12:29:46;;;;;;;4.68;0.20;;;5.70;90.10;;;;;;5013869;28;20053;-90
2020/12/25 12:32:12;;;;;;;2.65;0.20;;;5.80;90.10;;;;;;5016624;28;20029;-89
2020/12/25 12:34:37;;;;;;;3.75;0.43;;;5.80;90.00;;;;;;5014154;28;20032;-90
2020/12/25 12:37:03;;;;;;;4.10;0.22;;;5.80;90.00;;;;;;5021135;28;20036;-89
2020/12/25 12:39:29;;;;;;;6.93;0.60;;;5.80;89.60;;;;;;5015462;28;20029;-90
2020/12/25 12:41:57;;;;;;;5.65;0.30;;;5.80;89.30;;;;;;5014182;28;20048;-89
2020/12/25 12:44:23;;;;;;;2.92;0.28;;;5.80;89.20;;;;;;5015165;28;20025;-88
2020/12/25 12:46:53;;;;;;;4.72;0.30;;;5.80;89.10;;;;;;5014798;28;20045;-89
2020/12/25 12:49:18;;;;;;;4.60;0.40;;;5.80;89.20;;;;;;5015245;28;20393;-90
2020/12/25 12:51:44;;;;;;;8.15;0.82;;;5.90;88.80;;;;;;5030596;28;20037;-90
2020/12/25 12:54:09;;;;;;;6.40;0.30;;;5.90;88.80;;;;;;5017704;28;20029;-91